Time;durP1;ratioP1;P1;durP2;ratioP2;P2;SDS_P1;SDS_P2;PMS_P1;PMS_P2;Temp;Humidity;BMP_temperature;BMP_pressure;BME280_temperature;BME280_humidity;BME280_pressure;Samples;Min_cycle;Max_cycle;Signal;HPM_P1;HPM_P2
2022/03/01 00:01:15;;;;;;;;;;;;;;;18.49;43.22;102736.25;4993130;28;19920;-65
2022/03/01 00:03:41;;;;;;;6.90;5.10;;;;;;;18.45;43.17;102727.63;4992976;28;20781;-65
2022/03/01 00:06:06;;;;;;;8.10;5.55;;;;;;;18.41;43.33;102733.16;4993577;28;20784;-64
2022/03/01 00:08:31;;;;;;;7.63;5.25;;;;;;;18.40;43.27;102742.84;4992326;28;20022;-64
2022/03/01 00:10:57;;;;;;;7.83;5.27;;;;;;;18.37;43.33;102742.16;4993489;28;20080;-64
2022/03/01 00:13:22;;;;;;;6.60;5.30;;;;;;;18.34;43.33;102743.19;4993216;28;20387;-65
2022/03/01 00:15:47;;;;;;;;;;;;;;;18.31;43.30;102740.72;4993044;28;20030;-65
2022/03/01 00:18:13;;;;;;;;;;;;;;;18.28;43.06;102732.94;4993786;28;19914;-65
2022/03/01 00:20:38;;;;;;;;;;;;;;;18.25;43.47;102735.75;4993441;28;20412;-65
2022/03/01 00:23:03;;;;;;;;;;;;;;;18.22;43.40;102739.38;4992774;28;19928;-65
2022/03/01 00:25:28;;;;;;;;;;;;;;;18.21;43.39;102736.81;4993278;28;19969;-65
2022/03/01 00:27:54;;;;;;;;;;;;;;;18.18;43.19;102736.97;4993783;28;20362;-65
2022/03/01 00:30:19;;;;;;;;;;;;;;;18.14;43.29;102731.00;4992956;28;20415;-65
2022/03/01 00:32:44;;;;;;;;;;;;;;;18.13;43.22;102732.81;4993783;28;19914;-65
2022/03/01 00:35:09;;;;;;;;;;;;;;;18.10;43.46;102734.72;4992906;28;19914;-65
2022/03/01 00:37:34;;;;;;;;;;;;;;;18.08;43.13;102733.97;4993293;28;19972;-65
2022/03/01 00:39:59;;;;;;;;;;;;;;;18.06;43.31;102733.19;4993546;28;19914;-65
2022/03/01 00:42:25;;;;;;;;;;;;;;;18.04;43.23;102745.59;4992362;28;19932;-65
2022/03/01 00:44:50;;;;;;;;;;;;;;;18.02;43.21;102745.69;4993606;28;19914;-65
2022/03/01 00:47:15;;;;;;;;;;;;;;;18.00;43.31;102749.34;4993537;28;20012;-65
2022/03/01 00:49:40;;;;;;;;;;;;;;;17.98;43.42;102743.28;4994887;28;19953;-65
2022/03/01 00:52:06;;;;;;;;;;;;;;;17.94;43.44;102743.44;4997182;28;19914;-65
2022/03/01 00:54:31;;;;;;;;;;;;;;;17.92;43.21;102747.09;4996892;28;19917;-65
2022/03/01 00:56:56;;;;;;;;;;;;;;;17.90;43.35;102748.97;4996505;28;20461;-66
2022/03/01 00:59:21;;;;;;;;;;;;;;;17.88;43.41;102749.03;4996945;28;19921;-64
2022/03/01 01:01:46;;;;;;;;;;;;;;;17.85;43.28;102745.63;4997061;28;19917;-65
2022/03/01 01:04:12;;;;;;;;;;;;;;;17.83;43.49;102744.88;4996273;28;20373;-65
2022/03/01 01:06:37;;;;;;;;;;;;;;;17.81;43.42;102744.09;4996881;28;19916;-65
2022/03/01 01:09:02;;;;;;;;;;;;;;;17.79;43.24;102738.91;4996941;28;19914;-65
2022/03/01 01:11:27;;;;;;;;;;;;;;;17.76;43.15;102739.91;4996011;28;19914;-65
2022/03/01 01:13:53;;;;;;;;;;;;;;;17.74;43.22;102735.66;4997004;28;19948;-65
2022/03/01 01:16:18;;;;;;;;;;;;;;;17.73;43.52;102740.03;4996843;28;20419;-65
2022/03/01 01:18:43;;;;;;;;;;;;;;;17.70;43.18;102740.19;4995612;28;20281;-66
2022/03/01 01:21:09;;;;;;;;;;;;;;;17.67;43.51;102737.72;4996621;28;19920;-65
2022/03/01 01:23:35;;;;;;;;;;;;;;;17.67;43.37;102737.72;4996400;28;19914;-65
2022/03/01 01:26:00;;;;;;;;;;;;;;;17.65;43.18;102741.38;4996025;28;19914;-65
2022/03/01 01:28:25;;;;;;;7.20;5.43;;;;;;;17.61;43.32;102729.25;4995935;28;20370;-65
2022/03/01 01:30:50;;;;;;;7.72;5.25;;;;;;;17.61;43.21;102731.91;4996061;28;20022;-65
2022/03/01 01:33:15;;;;;;;;;;;;;;;17.59;43.51;102739.88;4995756;28;20072;-65
2022/03/01 01:35:41;;;;;;;;;;;;;;;17.58;43.04;102733.75;4996076;28;19914;-65
2022/03/01 01:38:06;;;;;;;;;;;;;;;17.57;43.12;102739.09;4996387;28;20000;-65
2022/03/01 01:40:32;;;;;;;;;;;;;;;17.56;43.14;102740.03;4995525;28;20016;-65
2022/03/01 01:42:58;;;;;;;;;;;;;;;17.54;43.26;102740.09;4996139;28;19928;-65
2022/03/01 01:45:24;;;;;;;;;;;;;;;17.54;43.46;102742.72;4995236;28;19914;-66
2022/03/01 01:47:53;;;;;;;;;;;;;;;17.57;43.87;102737.31;4996114;28;20369;-65
2022/03/01 01:50:19;;;;;;;;;;;;;;;17.62;43.69;102730.97;4996219;28;19914;-65
2022/03/01 01:52:46;;;;;;;;;;;;;;;17.65;43.75;102731.66;4995283;28;19983;-66
2022/03/01 01:55:11;;;;;;;;;;;;;;;17.68;43.49;102733.31;4996275;28;19918;-64
2022/03/01 01:57:36;;;;;;;;;;;;;;;17.71;43.47;102731.38;4995844;28;20405;-64
2022/03/01 02:00:03;;;;;;;;;;;;;;;17.74;43.71;102730.38;4995120;28;19913;-65
2022/03/01 02:02:28;;;;;;;;;;;;;;;17.76;43.64;102729.34;4995670;28;19921;-65
2022/03/01 02:04:54;;;;;;;;;;;;;;;17.78;43.42;102734.53;4995853;28;19921;-64
2022/03/01 02:07:19;;;;;;;;;;;;;;;17.80;43.66;102731.84;4994706;28;19956;-65
2022/03/01 02:09:44;;;;;;;;;;;;;;;17.81;43.40;102717.72;4995937;28;20265;-64
2022/03/01 02:12:10;;;;;;;;;;;;;;;17.81;43.83;102723.00;4995934;28;20000;-64
2022/03/01 02:14:37;;;;;;;;;;;;;;;17.81;43.48;102729.13;4994606;28;20262;-64
2022/03/01 02:17:03;;;;;;;;;;;;;;;17.82;43.63;102722.94;4995656;28;19920;-64
2022/03/01 02:19:29;;;;;;;;;;;;;;;17.82;43.49;102724.72;4995299;28;19921;-64
2022/03/01 02:21:55;;;;;;;;;;;;;;;17.82;43.36;102722.94;4994402;28;19913;-65
2022/03/01 02:24:28;;;;;;;;;;;;;;;17.81;43.06;102723.84;4995411;28;19921;-65
2022/03/01 02:26:57;;;;;;;;;;;;;;;17.81;43.02;102723.84;4995560;28;19916;-65
2022/03/01 02:29:25;;;;;;;;;;;;;;;17.80;42.81;102727.44;4994422;28;19924;-65
2022/03/01 02:31:51;;;;;;;;;;;;;;;17.79;42.59;102720.44;4995325;28;19909;-65
2022/03/01 02:34:17;;;;;;;;;;;;;;;17.79;42.46;102722.22;4995079;28;20004;-65
2022/03/01 02:36:42;;;;;;;;;;;;;;;17.77;42.76;102719.69;4994083;28;19914;-64
2022/03/01 02:39:10;;;;;;;;;;;;;;;17.77;42.63;102719.69;4995118;28;19909;-64
2022/03/01 02:41:39;;;;;;;;;;;;;;;17.76;42.87;102710.03;4994071;28;19922;-65
2022/03/01 02:44:04;;;;;;;;;;;;;;;17.75;42.63;102719.75;4995148;28;19914;-64
2022/03/01 02:46:29;;;;;;;;;;;;;;;17.77;42.69;102717.03;4994807;28;19920;-65
2022/03/01 02:48:55;;;;;;;;;;;;;;;17.78;42.74;102713.44;4994139;28;20431;-65
2022/03/01 02:51:22;;;;;;;;;;;;;;;17.80;43.09;102713.38;4994829;28;19914;-64
2022/03/01 02:53:47;;;;;;;;;;;;;;;17.80;43.01;102706.34;4994785;28;20258;-64
2022/03/01 02:56:13;;;;;;;;;;;;;;;17.81;42.59;102696.63;4994205;28;19917;-64
2022/03/01 02:58:38;;;;;;;;;;;;;;;17.81;42.92;102692.19;4994792;28;19969;-65
2022/03/01 03:01:24;;;;;;;;;;;;;;;17.82;42.63;102695.72;4994677;28;19913;-65
2022/03/01 03:03:49;;;;;;;;;;;;;;;17.83;42.70;102692.13;4993530;28;19918;-65
2022/03/01 03:06:17;;;;;;;;;;;;;;;17.84;42.79;102694.69;4994832;28;20277;-65
2022/03/01 03:08:42;;;;;;;;;;;;;;;17.83;42.94;102697.41;4994313;28;19960;-65
2022/03/01 03:11:08;;;;;;;;;;;;;;;17.84;42.85;102699.13;4993411;28;19976;-65
2022/03/01 03:13:33;;;;;;;;;;;;;;;17.83;42.93;102693.00;4994266;28;19917;-65
2022/03/01 03:15:58;;;;;;;;;;;;;;;17.82;43.12;102699.19;4994529;28;19914;-65
2022/03/01 03:18:23;;;;;;;;;;;;;;;17.81;42.72;102686.94;4993506;28;19914;-65
2022/03/01 03:20:49;;;;;;;;;;;;;;;17.82;43.02;102693.06;4994658;28;19918;-65
2022/03/01 03:23:14;;;;;;;;;;;;;;;17.81;42.90;102694.00;4994459;28;19953;-65
2022/03/01 03:25:39;;;;;;;;;;;;;;;17.80;42.32;102705.47;4993484;28;19921;-65
2022/03/01 03:28:04;;;;;;;;;;;;;;;17.81;42.20;102701.91;4994319;28;19918;-65
2022/03/01 03:30:29;;;;;;;;;;;;;;;17.82;42.08;102691.28;4994073;28;20416;-65
2022/03/01 03:32:55;;;;;;;;;;;;;;;17.83;41.97;102693.00;4993572;28;19918;-65
2022/03/01 03:35:20;;;;;;;;;;;;;;;17.85;42.20;102690.25;4994212;28;19913;-65
2022/03/01 03:37:46;;;;;;;;;;;;;;;17.84;42.06;102686.78;4994365;28;19917;-65
2022/03/01 03:40:11;;;;;;;;;;;;;;;17.85;42.25;102691.13;4993614;28;20353;-65
2022/03/01 03:42:36;;;;;;;;;;;;;;;17.85;42.08;102696.41;4993775;28;19968;-65
2022/03/01 03:45:02;;;;;;;;;;;;;;;17.85;42.06;102691.13;4993541;28;19921;-65
2022/03/01 03:47:27;;;;;;;;;;;;;;;17.85;41.87;102693.75;4993832;28;20345;-65
2022/03/01 03:49:53;;;;;;;;;;;;;;;17.86;41.96;102691.97;4994417;28;19913;-64
2022/03/01 03:52:18;;;;;;;;;;;;;;;17.86;41.89;102690.16;4993381;28;20630;-64
2022/03/01 03:54:43;;;;;;;;;;;;;;;17.87;41.57;102689.25;4993817;28;19910;-64
2022/03/01 03:57:08;;;;;;;;;;;;;;;17.89;41.80;102689.22;4994017;28;19921;-64
2022/03/01 03:59:37;;;;;;;;;;;;;;;17.91;41.61;102689.97;4992862;28;19914;-65
2022/03/01 04:02:03;;;;;;;;;;;;;;;17.92;41.72;102689.91;4993663;28;19921;-64
2022/03/01 04:04:35;;;;;;;;;;;;;;;17.93;41.81;102702.16;4993444;28;20008;-64
2022/03/01 04:07:00;;;;;;;;;;;;;;;17.94;41.54;102695.09;4993073;28;19914;-64
2022/03/01 04:09:25;;;;;;;;;;;;;;;17.94;41.43;102689.81;4993587;28;19913;-65
2022/03/01 04:11:51;;;;;;;;;;;;;;;17.94;41.52;102689.81;4993855;28;19914;-64
2022/03/01 04:14:17;;;;;;;;;;;;;;;17.94;41.56;102698.59;4992992;28;19913;-64
2022/03/01 04:16:42;;;;;;;;;;;;;;;17.93;41.60;102694.25;4993664;28;19913;-64
2022/03/01 04:19:08;;;;;;;;;;;;;;;17.94;41.63;102695.09;4993747;28;20277;-64
2022/03/01 04:21:33;;;;;;;;;;;;;;;17.92;41.37;102697.81;4992815;28;19917;-65
2022/03/01 04:23:58;;;;;;;;;;;;;;;17.92;41.41;102702.25;4995273;28;19913;-65
2022/03/01 04:26:23;;;;;;;;;;;;;;;17.92;41.26;102704.88;4997507;28;19914;-65
2022/03/01 04:28:49;;;;;;;;;;;;;;;17.92;41.15;102697.81;4996869;28;19914;-65
2022/03/01 04:31:14;;;;;;;;;;;;;;;17.93;41.47;102701.31;4997613;28;20313;-65
2022/03/01 04:33:39;;;;;;;;;;;;;;;17.93;41.75;102704.81;4997457;28;19914;-66
2022/03/01 04:36:06;;;;;;;;;;;;;;;17.94;41.47;102703.88;4996877;28;19918;-65
2022/03/01 04:38:31;;;;;;;;;;;;;;;17.94;41.49;102698.59;4997080;28;20400;-66
2022/03/01 04:40:57;;;;;;;;;;;;;;;17.95;41.27;102696.81;4997561;28;19913;-65
2022/03/01 04:43:22;;;;;;;;;;;;;;;17.95;41.32;102695.00;4996169;28;19918;-65
2022/03/01 04:45:48;;;;;;;;;;;;;;;17.96;41.14;102698.53;4997368;28;19913;-65
2022/03/01 04:48:13;;;;;;;;;;;;;;;17.96;41.59;102693.25;4997149;28;19913;-66
2022/03/01 04:50:38;;;;;;;;;;;;;;;17.96;41.28;102695.88;4996448;28;19977;-65
2022/03/01 04:53:03;;;;;;;;;;;;;;;17.95;41.50;102691.53;4997111;28;19937;-65
2022/03/01 04:55:29;;;;;;;;;;;;;;;17.94;41.40;102689.81;4996014;28;19918;-66
2022/03/01 04:57:54;;;;;;;;;;;;;;;17.95;41.75;102688.91;4997144;28;19960;-65
2022/03/01 05:00:21;;;;;;;;;;;;;;;17.95;41.26;102688.91;4996709;28;19917;-65
2022/03/01 05:02:47;;;;;;;;;;;;;;;17.95;41.42;102692.38;4996087;28;19929;-66
2022/03/01 05:05:13;;;;;;;;;;;;;;;17.95;41.35;102687.09;4997282;28;19913;-65
2022/03/01 05:07:42;;;;;;;;;;;;;;;17.98;41.20;102687.91;4996672;28;19936;-65
2022/03/01 05:10:08;;;;;;;;;;;;;;;17.98;41.38;102687.91;4996088;28;19961;-66
2022/03/01 05:12:40;;;;;;;;;;;;;;;18.00;41.28;102686.03;4996630;28;19914;-66
2022/03/01 05:15:06;;;;;;;;;;;;;;;18.00;41.43;102686.03;4996964;28;19936;-65
2022/03/01 05:17:31;;;;;;;;;;;;;;;18.00;41.44;102680.75;4995716;28;20387;-65
2022/03/01 05:19:56;;;;;;;;;;;;;;;17.99;41.36;102686.94;4996571;28;19920;-66
2022/03/01 05:22:21;;;;;;;;;;;;;;;18.00;41.33;102683.38;4996136;28;20031;-66
2022/03/01 05:24:46;;;;;;;;;;;;;;;18.00;41.53;102680.75;4995582;28;19914;-66
2022/03/01 05:27:12;;;;;;;;;;;;;;;17.99;41.32;102681.66;4996383;28;19909;-65
2022/03/01 05:29:37;;;;;;;;;;;;;;;17.99;41.18;102676.41;4995997;28;19920;-66
2022/03/01 05:32:02;;;;;;;;;;;;;;;17.99;40.99;102665.84;4995609;28;20265;-65
2022/03/01 05:34:28;;;;;;;;;;;;;;;17.99;41.54;102666.72;4995556;28;19910;-65
2022/03/01 05:36:53;;;;;;;;;;;;;;;18.00;41.56;102662.28;4995949;28;19941;-65
2022/03/01 05:39:18;;;;;;;;;;;;;;;18.00;41.33;102665.75;4995677;28;19949;-65
2022/03/01 05:41:43;;;;;;;;;;;;;;;18.02;41.24;102668.31;4995750;28;19914;-66
2022/03/01 05:44:09;;;;;;;;;;;;;;;18.01;40.90;102661.31;4996175;28;19917;-66
2022/03/01 05:46:34;;;;;;;;;;;;;;;18.00;41.08;102663.13;4995310;28;19913;-64
2022/03/01 05:48:59;;;;;;;;;;;;;;;18.00;41.46;102659.66;4996225;28;20296;-64
2022/03/01 05:51:24;;;;;;;;;;;;;;;17.99;41.49;102656.16;4995922;28;20388;-64
2022/03/01 05:53:53;;;;;;;;;;;;;;;17.98;41.61;102656.25;4995335;28;19914;-64
2022/03/01 05:56:18;;;;;;;;;;;;;;;17.99;41.74;102664.06;4995832;28;19921;-64
2022/03/01 05:58:43;;;;;;;;;;;;;;;17.99;40.94;102665.84;4995066;28;19913;-64
2022/03/01 06:01:08;;;;;;;;;;;;;;;17.99;40.95;102657.94;4995959;28;20302;-64
2022/03/01 06:03:33;;;;;;;;;;;;;;;17.97;41.00;102651.88;4995345;28;19922;-64
2022/03/01 06:05:59;;;;;;;;;;;;;;;18.03;41.38;102659.47;4994998;28;19913;-64
2022/03/01 06:08:24;;;;;;;;;;;;;;;18.05;41.95;102657.63;4995401;28;19921;-64
2022/03/01 06:10:49;;;;;;;;;;;;;;;18.07;41.74;102655.72;4995583;28;19971;-64
2022/03/01 06:13:14;;;;;;;;;;;;;;;18.09;41.46;102656.53;4994811;28;19921;-64
2022/03/01 06:15:39;;;;;;;;;;;;;;;18.11;42.67;102652.84;4995360;28;19917;-64
2022/03/01 06:18:04;;;;;;;;;;;;;;;18.16;42.95;102659.69;4995448;28;19922;-64
2022/03/01 06:20:30;;;;;;;;;;;;;;;18.18;43.11;102658.66;4994432;28;19914;-64
2022/03/01 06:22:55;;;;;;;;;;;;;;;18.20;42.59;102653.28;4995271;28;19994;-64
2022/03/01 06:25:20;;;;;;;;;;;;;;;18.22;42.59;102656.72;4995167;28;20005;-64
2022/03/01 06:27:45;;;;;;;;;;;;;;;18.24;42.60;102653.06;4994540;28;19914;-64
2022/03/01 06:30:11;;;;;;;;;;;;;;;18.26;42.21;102660.91;4995486;28;20004;-64
2022/03/01 06:32:36;;;;;;;;;;;;;;;18.27;42.29;102660.81;4995154;28;20005;-64
2022/03/01 06:35:02;;;;;;;;;;;;;;;18.28;42.19;102667.81;4994571;28;19936;-64
2022/03/01 06:37:27;;;;;;;;;;;;;;;18.30;42.38;102665.94;4995061;28;19921;-64
2022/03/01 06:39:53;;;;;;;;;;;;;;;18.32;43.81;102679.03;4995238;28;19920;-65
2022/03/01 06:42:21;;;;;;;;;;;;;;;18.33;44.57;102680.75;4994172;28;20334;-66
2022/03/01 06:44:47;;;;;;;;;;;;;;;18.37;44.72;102689.38;4995115;28;19953;-66
2022/03/01 06:47:12;;;;;;;;;;;;;;;18.38;44.30;102681.38;4994221;28;19914;-66
2022/03/01 06:49:37;;;;;;;;;;;;;;;18.39;44.34;102690.13;4993906;28;19914;-65
2022/03/01 06:52:03;;;;;;;;;;;;;;;18.40;43.89;102684.75;4994976;28;19977;-65
2022/03/01 06:54:29;;;;;;;;;;;;;;;18.42;43.50;102689.97;4994695;28;19957;-66
2022/03/01 06:56:54;;;;;;;;;;;;;;;18.42;43.35;102693.47;4993946;28;19964;-66
2022/03/01 06:59:19;;;;;;;;;;;;;;;18.43;43.01;102696.97;4994462;28;19918;-66
2022/03/01 07:01:44;;;;;;;;;;;;;;;18.44;42.94;102694.25;4994645;28;19961;-66
2022/03/01 07:04:09;;;;;;;;;;;;;;;18.45;44.29;102695.97;4993779;28;20004;-65
2022/03/01 07:06:34;;;;;;;;;;;;;;;18.46;45.10;102702.06;4994358;28;19925;-66
2022/03/01 07:09:00;;;;;;;;;;;;;;;18.47;45.55;102702.00;4993939;28;19996;-66
2022/03/01 07:11:25;;;;;;;;;;;;;;;18.48;45.71;102692.28;4994231;28;19924;-66
2022/03/01 07:13:50;;;;;;;;;;;;;;;18.48;45.20;102706.34;4994671;28;19917;-65
2022/03/01 07:16:16;;;;;;;;;;;;;;;18.49;45.52;102696.63;4993914;28;20440;-65
2022/03/01 07:18:41;;;;;;;;;;;;;;;18.51;44.90;102693.91;4994251;28;19914;-63
2022/03/01 07:21:07;;;;;;;;;;;;;;;18.48;42.29;102692.28;4994465;28;19960;-64
2022/03/01 07:23:32;;;;;;;;;;;;;;;18.49;44.05;102700.13;4993225;28;20254;-64
2022/03/01 07:25:57;;;;;;;;;;;;;;;18.51;43.99;102700.03;4994224;28;19940;-65
2022/03/01 07:28:22;;;;;;;;;;;;;;;18.55;44.00;102708.63;4994097;28;19922;-66
2022/03/01 07:30:48;;;;;;;;;;;;;;;18.55;44.24;102704.22;4993519;28;19921;-68
2022/03/01 07:33:13;;;;;;;;;;;;;;;18.58;44.36;102705.84;4994209;28;19913;-66
2022/03/01 07:35:38;;;;;;;;;;;;;;;18.60;44.32;102710.09;4994029;28;20261;-65
2022/03/01 07:38:03;;;;;;;;;;;;;;;18.61;44.15;102711.81;4992671;28;19913;-65
2022/03/01 07:40:29;;;;;;;;;;;;;;;18.64;43.98;102718.72;4993890;28;20365;-65
2022/03/01 07:42:54;;;;;;;;;;;;;;;18.66;43.54;102727.44;4993762;28;20397;-64
2022/03/01 07:45:20;;;;;;;;;;;;;;;18.68;43.48;102736.94;4993048;28;19913;-64
2022/03/01 07:47:45;;;;;;;;;;;;;;;18.72;43.53;102729.72;4994044;28;19925;-65
2022/03/01 07:50:10;;;;;;;;;;;;;;;18.74;43.64;102725.22;4993794;28;19914;-65
2022/03/01 07:52:35;;;;;;;;;;;;;;;18.75;43.94;102718.97;4992960;28;19918;-65
2022/03/01 07:55:03;;;;;;;;;;;;;;;18.78;43.90;102716.16;4993891;28;19943;-64
2022/03/01 07:57:29;;;;;;;;;;;;;;;18.79;44.24;102706.47;4993524;28;19921;-64
2022/03/01 07:59:54;;;;;;;;;;;;;;;18.80;44.57;102708.16;4993246;28;19918;-63
2022/03/01 08:02:19;;;;;;;;;;;;;;;18.78;44.58;102702.13;4993325;28;20321;-63
2022/03/01 08:04:44;;;;;;;;;;;;;;;18.81;44.65;102708.09;4994018;28;19917;-64
2022/03/01 08:07:09;;;;;;;;;;;;;;;18.82;44.06;102717.72;4993251;28;20071;-63
2022/03/01 08:09:35;;;;;;;;;;;;;;;18.83;43.85;102718.56;4958489;28;20365;-66
2022/03/01 08:12:02;;;;;;;;;;;;;;;18.87;44.63;102721.91;5013372;28;20394;-67
2022/03/01 08:14:29;;;;;;;;;;;;;;;18.90;43.47;102725.25;5012679;28;19925;-65
2022/03/01 08:16:55;;;;;;;;;;;;;;;18.97;44.26;102728.41;5013572;28;19914;-64
2022/03/01 08:19:20;;;;;;;;;;;;;;;19.02;44.85;102721.91;5012526;28;19920;-64
2022/03/01 08:21:45;;;;;;;;;;;;;;;19.07;45.18;102721.66;5013306;28;20288;-64
2022/03/01 08:24:10;;;;;;;;;;;;;;;19.10;45.07;102725.94;5013318;28;20004;-64
2022/03/01 08:26:36;;;;;;;;;;;;;;;19.13;45.35;102731.06;5012324;28;20262;-65
2022/03/01 08:29:01;;;;;;;;;;;;;;;19.16;44.96;102731.72;5013462;28;19945;-65
2022/03/01 08:31:26;;;;;;;;;;;;;;;19.23;44.95;102734.03;5014173;28;19913;-66
2022/03/01 08:33:55;;;;;;;;;;;;;;;19.29;45.27;102734.53;5013126;28;20299;-66
2022/03/01 08:36:20;;;;;;;;;;;;;;;19.33;44.38;102730.78;5013006;28;19913;-66
2022/03/01 08:38:45;;;;;;;;;;;;;;;19.35;44.75;102738.63;5013203;28;19925;-66
2022/03/01 08:41:11;;;;;;;;;;;;;;;19.37;44.79;102740.22;5012376;28;19918;-66
2022/03/01 08:43:36;;;;;;;;;;;;;;;19.38;45.15;102735.81;5013075;28;20373;-66
2022/03/01 08:46:01;;;;;;;;;;;;;;;19.39;45.46;102738.38;5013289;28;20377;-66
2022/03/01 08:48:26;;;;;;;;;;;;;;;19.38;45.08;102744.59;5012018;28;19913;-66
2022/03/01 08:50:52;;;;;;;;;;;;;;;19.39;44.65;102751.59;5012987;28;19959;-66
2022/03/01 08:53:19;;;;;;;;;;;;;;;19.39;44.44;102754.25;5013007;28;19913;-65
2022/03/01 08:55:44;;;;;;;;;;;;;;;19.40;44.68;102758.56;5012302;28;19955;-65
2022/03/01 08:58:10;;;;;;;;;;;;;;;19.39;45.36;102754.25;5013168;28;19969;-67
2022/03/01 09:00:35;;;;;;;;;;;;;;;19.38;44.89;102757.81;5012679;28;19980;-65
2022/03/01 09:03:01;;;;;;;;;;;;;;;19.37;43.96;102761.38;5011914;28;20420;-68
2022/03/01 09:05:26;;;;;;;;;;;;;;;19.35;42.32;102760.63;5012568;28;19917;-65
2022/03/01 09:07:51;;;;;;;;;;;;;;;19.29;40.25;102757.47;5012919;28;19913;-67
2022/03/01 09:10:21;;;;;;;;;;;;;;;19.24;41.29;102760.38;5013043;28;19921;-66
2022/03/01 09:12:47;;;;;;;;;;;;;;;19.21;43.38;102764.03;5016581;28;19940;-66
2022/03/01 09:15:12;;;;;;;;;;;;;;;19.19;44.14;102762.44;5016250;28;20356;-65
2022/03/01 09:17:37;;;;;;;;;;;;;;;19.16;44.57;102759.97;5015397;28;19913;-66
2022/03/01 09:20:03;;;;;;;;;;;;;;;19.16;44.62;102752.03;5016246;28;19913;-65
2022/03/01 09:22:28;;;;;;;;;;;;;;;19.14;45.20;102749.47;5015945;28;19913;-65
2022/03/01 09:24:53;;;;;;;;;;;;;;;19.13;45.14;102753.03;5015451;28;19936;-66
2022/03/01 09:27:18;;;;;;;;;;;;;;;19.11;44.67;102754.09;5015739;28;19964;-66
2022/03/01 09:29:44;;;;;;;;;;;;;;;19.11;44.30;102762.84;5015205;28;19913;-66
2022/03/01 09:32:09;;;;;;;;;;;;;;;19.11;44.18;102756.72;5016296;28;19925;-67
2022/03/01 09:34:34;;;;;;;;;;;;;;;19.12;44.50;102758.41;5015717;28;20380;-67
2022/03/01 09:36:59;;;;;;;;;;;;;;;19.10;44.68;102755.84;5015120;28;19941;-67
2022/03/01 09:39:25;;;;;;;;;;;;;;;19.10;45.04;102752.38;5015437;28;20343;-66
2022/03/01 09:41:51;;;;;;;;;;;;;;;19.10;45.27;102747.09;5015935;28;20404;-67
2022/03/01 09:44:17;;;;;;;;;;;;;;;19.10;45.59;102755.84;5015312;28;19917;-67
2022/03/01 09:46:43;;;;;;;;;;;;;;;19.09;45.15;102754.16;5015720;28;19920;-67
2022/03/01 09:49:09;;;;;;;;;;;;;;;19.08;45.03;102763.03;5015637;28;20357;-67
2022/03/01 09:51:35;;;;;;;;;;;;;;;19.09;45.00;102771.78;5014751;28;19920;-68
2022/03/01 09:54:01;;;;;;;;;;;;;;;19.08;44.68;102768.31;5015701;28;19959;-68
2022/03/01 09:56:26;;;;;;;;;;;;;;;19.08;44.30;102767.47;5015556;28;19941;-68
2022/03/01 09:58:52;;;;;;;;;;;;;;;19.08;44.71;102768.31;5014923;28;20284;-68
2022/03/01 10:01:17;;;;;;;;;;;;;;;19.07;44.74;102771.03;5015651;28;19981;-68
2022/03/01 10:03:51;;;;;;;;;;;;;;;19.07;45.29;102785.09;5015076;28;20372;-68
2022/03/01 10:06:16;;;;;;;;;;;;;;;19.07;45.45;102778.97;5014870;28;19918;-69
2022/03/01 10:08:45;;;;;;;;;;;;;;;19.07;45.66;102773.69;5015237;28;20320;-68
2022/03/01 10:11:10;;;;;;;;;;;;;;;19.05;45.31;102771.13;5014974;28;19929;-68
2022/03/01 10:13:37;;;;;;;;;;;;;;;19.05;45.62;102779.03;5014354;28;19913;-68
2022/03/01 10:16:09;;;;;;;;;;;;;;;19.03;45.42;102778.28;5015098;28;19914;-68
2022/03/01 10:18:36;;;;;;;;;;;;;;;19.05;44.84;102780.84;5014971;28;19920;-68
2022/03/01 10:21:03;;;;;;;;;;;;;;;19.02;44.79;102772.13;5014880;28;19917;-68
2022/03/01 10:23:28;;;;;;;;;;;;;;;19.03;44.57;102768.56;5014897;28;20332;-68
2022/03/01 10:25:53;;;;;;;;;;;;;;;19.03;44.83;102773.00;5014193;28;19913;-68
2022/03/01 10:28:30;;;;;;;;;;;;;;;19.03;45.18;102771.19;5015151;28;20010;-68
2022/03/01 10:30:55;;;;;;;;;;;;;;;19.03;45.35;102770.34;5015147;28;20288;-68
2022/03/01 10:33:20;;;;;;;;;;;;;;;19.03;45.69;102768.56;5013943;28;20007;-68
2022/03/01 10:35:59;;;;;;;;;;;;;;;19.03;45.82;102765.06;5014763;28;19925;-68
2022/03/01 10:38:24;;;;;;;;;;;;;;;19.03;45.66;102759.78;5014739;28;19913;-68
2022/03/01 10:40:56;;;;;;;;;;;;;;;19.03;45.59;102759.78;5014151;28;20286;-66
2022/03/01 10:43:24;;;;;;;;;;;;;;;19.03;45.94;102762.44;5014458;28;19913;-67
2022/03/01 10:45:56;;;;;;;;;;;;;;;19.02;45.63;102752.78;5014806;28;20407;-67
2022/03/01 10:48:27;;;;;;;;;;;;;;;19.03;43.94;102765.06;5013540;28;19936;-71
2022/03/01 10:51:04;;;;;;;;;;;;;;;19.02;44.28;102755.44;5014707;28;19951;-68
2022/03/01 10:53:30;;;;;;;;;;;;;;;19.03;44.49;102773.00;5014352;28;20336;-68
2022/03/01 10:55:59;;;;;;;;;;;;;;;19.03;44.86;102771.19;5013678;28;19914;-68
2022/03/01 10:58:24;;;;;;;;;;;;;;;19.06;45.67;102779.88;5014204;28;20003;-71
2022/03/01 11:00:50;;;;;;;;;;;;;;;19.03;42.37;102773.84;5014345;28;20009;-67
2022/03/01 11:03:15;;;;;;;;;;;;;;;19.02;43.13;102771.28;5013915;28;19921;-68
2022/03/01 11:05:40;;;;;;;;;;;;;;;19.03;44.51;102778.28;5014119;28;19952;-69
2022/03/01 11:08:09;;;;;;;;;;;;;;;19.04;44.51;102772.03;5013587;28;19924;-69
2022/03/01 11:10:36;;;;;;;;;;;;;;;19.06;44.22;102777.25;5013976;28;20323;-67
2022/03/01 11:13:01;;;;;;;;;;;;;;;19.11;45.30;102778.72;5014112;28;20008;-68
2022/03/01 11:15:27;;;;;;;;;;;;;;;19.18;45.95;102777.44;5013163;28;20016;-70
2022/03/01 11:18:16;;;;;;;;;;;;;;;19.25;46.01;102779.72;5014168;28;19914;-70
2022/03/01 11:20:45;;;;;;;;;;;;;;;19.32;45.83;102781.09;5014174;28;19920;-69
2022/03/01 11:23:12;;;;;;;;;;;;;;;19.37;45.40;102781.69;5013419;28;19920;-70
2022/03/01 11:25:42;;;;;;;;;;;;;;;19.39;45.00;102767.47;5013747;28;19914;-65
2022/03/01 11:28:11;;;;;;;;;;;;;;;19.44;45.14;102771.63;5014239;28;19959;-65
2022/03/01 11:30:38;;;;;;;;;;;;;;;19.48;45.39;102776.66;5013037;28;19917;-68
2022/03/01 11:33:06;;;;;;;;;;;;;;;19.51;44.93;102773.84;5013604;28;19914;-67
2022/03/01 11:35:36;;;;;;;;;;;;;;;19.54;44.84;102772.81;5013791;28;19914;-69
2022/03/01 11:38:01;;;;;;;;;;;;;;;19.57;44.14;102770.84;5013048;28;19914;-66
2022/03/01 11:40:29;;;;;;;;;;;;;;;19.58;44.38;102766.41;5013649;28;19913;-65
2022/03/01 11:42:54;;;;;;;;;;;;;;;19.60;44.81;102768.94;5013602;28;20284;-66
2022/03/01 11:45:32;;;;;;;;;;;;;;;19.61;44.71;102768.03;5012691;28;19913;-65
2022/03/01 11:48:04;;;;;;;;;;;;;;;19.62;44.44;102756.50;5013717;28;20373;-66
2022/03/01 11:50:30;;;;;;;;;;;;;;;19.64;44.17;102755.47;5012530;28;19953;-66
2022/03/01 11:52:57;;;;;;;;;;;;;;;19.63;44.51;102751.13;5013879;28;20357;-66
2022/03/01 11:55:23;;;;;;;;;;;;;;;19.63;43.96;102742.31;5013448;28;19979;-66
2022/03/01 11:57:50;;;;;;;;;;;;;;;19.61;42.83;102738.94;5012998;28;19920;-66
2022/03/01 12:00:15;;;;;;;;;;;;;;;19.58;44.11;102734.66;5013512;28;20435;-67
2022/03/01 12:02:44;;;;;;;;;;;;;;;19.56;43.85;102720.69;5012903;28;20005;-68
2022/03/01 12:05:18;;;;;;;;;;;;;;;19.56;44.21;102718.88;5012637;28;19914;-68
2022/03/01 12:07:43;;;;;;;;;;;;;;;19.55;43.51;102718.97;5013453;28;19964;-65
2022/03/01 12:10:18;;;;;;;;;;;;;;;19.56;43.57;102716.22;5013621;28;19918;-65
2022/03/01 12:12:44;;;;;;;;;;;;;;;19.55;43.37;102709.25;5012503;28;19913;-65
2022/03/01 12:15:11;;;;;;;;;;;;;;;19.54;43.05;102699.63;5013427;28;19909;-66
2022/03/01 12:17:46;;;;;;;;;;;;;;;19.54;43.74;102699.63;5013106;28;19917;-66
2022/03/01 12:20:17;;;;;;;;;;;;;;;19.55;44.45;102688.09;5012755;28;19916;-67
2022/03/01 12:22:52;;;;;;;;;;;;;;;19.57;44.71;102690.66;5013111;28;19967;-65
2022/03/01 12:25:20;;;;;;;;;;;;;;;19.58;44.68;102690.56;5013241;28;19920;-66
2022/03/01 12:27:48;;;;;;;;;;;;;;;19.58;44.76;102689.69;5012560;28;20287;-66
2022/03/01 12:30:23;;;;;;;;;;;;;;;19.57;44.76;102680.91;5013207;28;19920;-64